Time;durP1;ratioP1;P1;durP2;ratioP2;P2;SDS_P1;SDS_P2;PMS_P1;PMS_P2;Temp;Humidity;BMP_temperature;BMP_pressure;BME280_temperature;BME280_humidity;BME280_pressure;Samples;Min_cycle;Max_cycle;Signal;HPM_P1;HPM_P2
2024/03/11 00:02:08;;;;;;;34.92;16.92;;;10.30;99.90;;;;;;5077577;28;20036;-71
2024/03/11 00:04:34;;;;;;;33.92;15.75;;;10.20;99.90;;;;;;5072924;28;20057;-72
2024/03/11 00:07:01;;;;;;;37.72;17.48;;;10.30;99.90;;;;;;5076283;28;20118;-72
2024/03/11 00:09:32;;;;;;;36.83;17.77;;;10.20;99.90;;;;;;5080785;28;20049;-70
2024/03/11 00:11:59;;;;;;;40.58;18.40;;;10.20;99.90;;;;;;5074663;28;20037;-71
2024/03/11 00:14:28;;;;;;;35.55;17.67;;;10.20;99.90;;;;;;5076729;28;21862;-71
2024/03/11 00:16:58;;;;;;;42.13;16.95;;;10.20;99.90;;;;;;5071331;28;20375;-72
2024/03/11 00:19:25;;;;;;;33.03;15.73;;;10.20;99.90;;;;;;5074016;28;20029;-72
2024/03/11 00:21:56;;;;;;;30.30;15.77;;;10.20;99.90;;;;;;5076401;28;20035;-72
2024/03/11 00:24:23;;;;;;;39.80;17.27;;;10.20;99.90;;;;;;5076189;28;20039;-71
2024/03/11 00:26:49;;;;;;;36.00;17.25;;;10.20;99.90;;;;;;5077201;28;20044;-70
2024/03/11 00:29:15;;;;;;;36.97;16.40;;;10.20;99.90;;;;;;5075886;28;20044;-72
2024/03/11 00:31:41;;;;;;;31.13;15.90;;;10.20;99.90;;;;;;5076317;28;20102;-72
2024/03/11 00:34:07;;;;;;;34.75;17.10;;;10.20;99.90;;;;;;5074488;28;20036;-71
2024/03/11 00:36:34;;;;;;;37.95;17.15;;;10.20;99.90;;;;;;5079655;28;21175;-71
2024/03/11 00:39:03;;;;;;;39.28;18.17;;;10.20;99.90;;;;;;5078577;28;20040;-73
2024/03/11 00:41:29;;;;;;;34.92;17.42;;;10.20;99.90;;;;;;5082052;28;20028;-71
2024/03/11 00:43:55;;;;;;;34.20;17.20;;;10.20;99.90;;;;;;5072106;28;20035;-71
2024/03/11 00:46:21;;;;;;;32.33;16.33;;;10.20;99.90;;;;;;5073028;28;20068;-71
2024/03/11 00:48:47;;;;;;;30.92;16.65;;;10.20;99.90;;;;;;5080474;28;20060;-71
2024/03/11 00:51:14;;;;;;;37.60;18.17;;;10.20;99.90;;;;;;5074593;28;20165;-72
2024/03/11 00:53:40;;;;;;;33.47;16.73;;;10.10;99.90;;;;;;5074675;28;20500;-70
2024/03/11 00:56:08;;;;;;;39.47;17.70;;;10.10;99.90;;;;;;5056228;28;20601;-73
2024/03/11 00:58:37;;;;;;;41.55;17.92;;;10.10;99.90;;;;;;5074342;28;20115;-70
2024/03/11 01:01:05;;;;;;;30.00;15.73;;;10.10;99.90;;;;;;5076501;28;20039;-70
2024/03/11 01:03:31;;;;;;;33.83;16.50;;;10.10;99.90;;;;;;5080558;28;20028;-70
2024/03/11 01:06:00;;;;;;;33.90;16.88;;;10.10;99.90;;;;;;5068827;28;20036;-70
2024/03/11 01:08:26;;;;;;;39.33;17.25;;;10.10;99.90;;;;;;5080513;28;20036;-69
2024/03/11 01:10:52;;;;;;;36.13;16.73;;;10.10;99.90;;;;;;5076030;28;20050;-70
2024/03/11 01:13:21;;;;;;;34.03;15.82;;;10.10;99.90;;;;;;5062817;28;20024;-73
2024/03/11 01:15:48;;;;;;;33.10;16.30;;;10.10;99.90;;;;;;5085465;28;20024;-68
2024/03/11 01:18:16;;;;;;;35.10;16.33;;;10.10;99.90;;;;;;5074222;28;20063;-69
2024/03/11 01:20:43;;;;;;;32.42;16.83;;;10.10;99.90;;;;;;5056193;28;20511;-71
2024/03/11 01:23:09;;;;;;;33.07;16.43;;;10.10;99.90;;;;;;5077303;28;20123;-71
2024/03/11 01:25:36;;;;;;;32.90;16.45;;;10.10;99.90;;;;;;5075702;28;20039;-69
2024/03/11 01:28:03;;;;;;;41.55;16.85;;;10.10;99.90;;;;;;5080562;28;20088;-70
2024/03/11 01:30:28;;;;;;;33.15;16.23;;;10.10;99.90;;;;;;5063148;28;20110;-69
2024/03/11 01:32:54;;;;;;;34.60;16.63;;;10.10;99.90;;;;;;5077928;28;20521;-71
2024/03/11 01:35:20;;;;;;;31.90;16.45;;;10.10;99.90;;;;;;5090164;28;20024;-70
2024/03/11 01:37:45;;;;;;;35.53;16.20;;;10.10;99.90;;;;;;5080030;28;20457;-70
2024/03/11 01:40:15;;;;;;;32.42;17.08;;;10.10;99.90;;;;;;5078578;28;20135;-70
2024/03/11 01:42:42;;;;;;;38.42;17.83;;;10.10;99.90;;;;;;5056093;28;20078;-69
2024/03/11 01:45:12;;;;;;;34.70;16.43;;;10.10;99.90;;;;;;5063188;28;20028;-69
2024/03/11 01:47:38;;;;;;;34.35;16.42;;;10.10;99.90;;;;;;5073125;28;20272;-71
2024/03/11 01:50:07;;;;;;;36.90;16.90;;;10.10;99.90;;;;;;5075529;28;20029;-72
2024/03/11 01:53:10;;;;;;;35.28;16.63;;;10.00;99.90;;;;;;5049391;28;20580;-71
2024/03/11 01:55:37;;;;;;;35.05;16.40;;;10.10;99.90;;;;;;5034134;28;20032;-69
2024/03/11 01:58:04;;;;;;;34.85;15.68;;;10.00;99.90;;;;;;5066603;28;20032;-70
2024/03/11 02:00:29;;;;;;;38.97;17.23;;;10.00;99.90;;;;;;5069998;28;20111;-71
2024/03/11 02:02:55;;;;;;;37.00;17.60;;;10.00;99.90;;;;;;5070592;28;20117;-70
2024/03/11 02:05:22;;;;;;;33.30;17.35;;;9.90;99.90;;;;;;5048362;28;20036;-69
2024/03/11 02:07:56;;;;;;;33.95;16.55;;;10.00;99.90;;;;;;5065250;28;20040;-69
2024/03/11 02:10:23;;;;;;;39.60;18.73;;;9.90;99.90;;;;;;5066481;28;20052;-69
2024/03/11 02:12:49;;;;;;;32.85;16.83;;;9.90;99.90;;;;;;5068873;28;20082;-70
2024/03/11 02:15:17;;;;;;;36.75;18.17;;;9.90;99.90;;;;;;5066811;28;20111;-71
2024/03/11 02:17:43;;;;;;;33.88;16.90;;;9.90;99.90;;;;;;5068144;28;20072;-68
2024/03/11 02:20:16;;;;;;;36.17;17.08;;;9.90;99.90;;;;;;5065287;28;20039;-69
2024/03/11 02:22:53;;;;;;;37.65;17.15;;;9.90;99.90;;;;;;5066731;28;20450;-68
2024/03/11 02:25:30;;;;;;;37.58;17.27;;;9.80;99.90;;;;;;5068134;28;20053;-70
2024/03/11 02:27:57;;;;;;;35.10;16.33;;;9.80;99.90;;;;;;5058241;28;20533;-70
2024/03/11 02:30:23;;;;;;;36.67;18.10;;;9.80;99.90;;;;;;5063600;28;20039;-70
2024/03/11 02:32:49;;;;;;;36.03;17.40;;;9.80;99.90;;;;;;5069684;28;20066;-68
2024/03/11 02:35:18;;;;;;;36.75;16.92;;;9.80;99.90;;;;;;5066792;28;20117;-70
2024/03/11 02:37:45;;;;;;;34.95;17.00;;;9.80;99.90;;;;;;5054292;28;20124;-68
2024/03/11 02:40:12;;;;;;;35.75;17.52;;;9.80;99.90;;;;;;5047947;28;20094;-70
2024/03/11 02:42:37;;;;;;;33.47;16.27;;;9.80;99.90;;;;;;5068410;28;20012;-69
2024/03/11 02:45:11;;;;;;;42.50;16.95;;;9.80;99.90;;;;;;5047267;28;20124;-70
2024/03/11 02:47:37;;;;;;;33.33;16.17;;;9.70;99.90;;;;;;5070165;28;20126;-70
2024/03/11 02:50:05;;;;;;;37.00;16.75;;;9.70;99.90;;;;;;5073304;28;20024;-70
2024/03/11 02:52:31;;;;;;;35.83;17.25;;;9.70;99.90;;;;;;5074363;28;20039;-71
2024/03/11 02:54:57;;;;;;;37.67;16.05;;;9.70;99.90;;;;;;5082263;28;20074;-70
2024/03/11 02:57:23;;;;;;;36.47;15.80;;;9.80;99.90;;;;;;5079389;28;20383;-69
2024/03/11 02:59:50;;;;;;;33.63;17.23;;;9.70;99.90;;;;;;5066564;28;20122;-70
2024/03/11 03:02:16;;;;;;;34.75;16.25;;;9.70;99.90;;;;;;5074884;28;20028;-70
2024/03/11 03:04:41;;;;;;;32.92;16.35;;;9.70;99.90;;;;;;5076780;28;20558;-70
2024/03/11 03:07:08;;;;;;;37.72;17.13;;;9.70;99.90;;;;;;5072338;28;20028;-70
2024/03/11 03:09:36;;;;;;;32.00;16.05;;;9.70;99.90;;;;;;5076048;28;20032;-69
2024/03/11 03:12:02;;;;;;;36.85;17.42;;;9.60;99.90;;;;;;5075770;28;20423;-70
2024/03/11 03:14:29;;;;;;;38.60;17.40;;;9.60;99.90;;;;;;5072820;28;20043;-69
2024/03/11 03:16:55;;;;;;;34.25;16.70;;;9.60;99.90;;;;;;5072722;28;20032;-70
2024/03/11 03:19:20;;;;;;;39.75;17.42;;;9.70;99.90;;;;;;5072395;28;20559;-72
2024/03/11 03:21:46;;;;;;;35.28;17.05;;;9.60;99.90;;;;;;5071108;28;20037;-70
2024/03/11 03:24:11;;;;;;;36.42;15.73;;;9.60;99.90;;;;;;5072641;28;20112;-70
2024/03/11 03:26:38;;;;;;;36.28;16.75;;;9.60;99.90;;;;;;5078726;28;20036;-73
2024/03/11 03:29:04;;;;;;;33.95;16.52;;;9.60;99.90;;;;;;5078175;28;20029;-69
2024/03/11 03:31:32;;;;;;;36.58;17.00;;;9.60;99.90;;;;;;5068105;28;20047;-72
2024/03/11 03:33:58;;;;;;;39.17;16.92;;;9.50;99.90;;;;;;5090489;28;20048;-72
2024/03/11 03:36:23;;;;;;;33.90;17.38;;;9.50;99.90;;;;;;5082125;28;20024;-71
2024/03/11 03:38:50;;;;;;;39.33;16.63;;;9.50;99.90;;;;;;5080384;28;20039;-71
2024/03/11 03:41:15;;;;;;;33.17;16.38;;;9.50;99.90;;;;;;5072761;28;20072;-71
2024/03/11 03:43:41;;;;;;;36.22;16.88;;;9.50;99.90;;;;;;5085746;28;20218;-71
2024/03/11 03:46:08;;;;;;;38.30;17.30;;;9.50;99.90;;;;;;5070035;28;20032;-71
2024/03/11 03:48:34;;;;;;;34.78;17.15;;;9.50;99.90;;;;;;5071410;28;20051;-69
2024/03/11 03:51:03;;;;;;;39.38;16.98;;;9.50;99.90;;;;;;5079092;28;20124;-71
2024/03/11 03:53:29;;;;;;;36.00;16.77;;;9.50;99.90;;;;;;5059699;28;20536;-70
2024/03/11 03:55:54;;;;;;;30.90;15.18;;;9.50;99.90;;;;;;5083400;28;20040;-69
2024/03/11 03:58:20;;;;;;;36.13;17.35;;;9.50;99.90;;;;;;5078629;28;20039;-71
2024/03/11 04:00:46;;;;;;;35.83;16.40;;;9.40;99.90;;;;;;5071656;28;20630;-72
2024/03/11 04:03:11;;;;;;;36.15;16.67;;;9.50;99.90;;;;;;5048602;28;20017;-72
2024/03/11 04:05:37;;;;;;;32.13;16.38;;;9.50;99.90;;;;;;5067371;28;20046;-71
2024/03/11 04:08:03;;;;;;;38.72;16.88;;;9.40;99.90;;;;;;5050533;28;20067;-71
2024/03/11 04:10:28;;;;;;;38.45;17.17;;;9.50;99.90;;;;;;5067861;28;20051;-72
2024/03/11 04:12:56;;;;;;;36.97;17.27;;;9.50;99.90;;;;;;5054006;28;20548;-71
2024/03/11 04:15:23;;;;;;;38.50;16.50;;;9.50;99.90;;;;;;5068546;28;20044;-71
2024/03/11 04:17:49;;;;;;;36.28;16.30;;;9.50;99.90;;;;;;5068012;28;20055;-71
2024/03/11 04:20:15;;;;;;;35.83;16.35;;;9.50;99.90;;;;;;5082126;28;20028;-71
2024/03/11 04:22:45;;;;;;;37.33;17.27;;;9.50;99.90;;;;;;5064563;28;20042;-70
2024/03/11 04:25:18;;;;;;;34.83;16.85;;;9.50;99.90;;;;;;5069998;28;20037;-71
2024/03/11 04:27:46;;;;;;;31.55;16.13;;;9.40;99.90;;;;;;5065947;28;20149;-71
2024/03/11 04:30:16;;;;;;;33.75;16.60;;;9.40;99.90;;;;;;5058146;28;20032;-72
2024/03/11 04:32:53;;;;;;;35.22;17.20;;;9.40;99.90;;;;;;5064119;28;20029;-73
2024/03/11 04:35:26;;;;;;;32.67;16.17;;;9.40;99.90;;;;;;5068267;28;20028;-70
2024/03/11 04:37:58;;;;;;;36.58;16.63;;;9.40;99.90;;;;;;5057961;28;20104;-73
2024/03/11 04:40:26;;;;;;;36.03;16.42;;;9.40;99.90;;;;;;5069666;28;20102;-71
2024/03/11 04:42:52;;;;;;;39.85;17.42;;;9.30;99.90;;;;;;5048860;28;20552;-74
2024/03/11 04:45:19;;;;;;;32.53;15.77;;;9.40;99.90;;;;;;5066307;28;20035;-71
2024/03/11 04:47:44;;;;;;;38.20;17.33;;;9.30;99.90;;;;;;5073094;28;20032;-71
2024/03/11 04:50:11;;;;;;;31.05;15.73;;;9.30;99.90;;;;;;5067719;28;20051;-72
2024/03/11 04:52:37;;;;;;;30.55;15.38;;;9.30;99.90;;;;;;5068274;28;20032;-71
2024/03/11 04:55:03;;;;;;;33.92;16.88;;;9.30;99.90;;;;;;5078997;28;20062;-70
2024/03/11 04:57:29;;;;;;;36.05;16.17;;;9.30;99.90;;;;;;5059759;28;20024;-71
2024/03/11 04:59:55;;;;;;;38.90;17.27;;;9.30;99.90;;;;;;5068149;28;20085;-71
2024/03/11 05:02:22;;;;;;;39.35;17.35;;;9.30;99.90;;;;;;5072548;28;20126;-72
2024/03/11 05:04:48;;;;;;;34.03;16.42;;;9.30;99.90;;;;;;5051436;28;20044;-71
2024/03/11 05:07:14;;;;;;;33.95;17.48;;;9.30;99.90;;;;;;5074592;28;20044;-71
2024/03/11 05:09:40;;;;;;;38.13;16.60;;;9.30;99.90;;;;;;5066728;28;20020;-73
2024/03/11 05:12:06;;;;;;;33.38;16.45;;;9.30;99.90;;;;;;5068298;28;20029;-71
2024/03/11 05:14:33;;;;;;;32.95;14.98;;;9.40;99.90;;;;;;5064825;28;20028;-71
2024/03/11 05:16:59;;;;;;;36.30;17.40;;;9.30;99.90;;;;;;5066027;28;20036;-71
2024/03/11 05:19:25;;;;;;;34.47;15.43;;;9.30;99.90;;;;;;5067891;28;20036;-71
2024/03/11 05:21:51;;;;;;;37.55;16.92;;;9.30;99.90;;;;;;5074891;28;20036;-73
2024/03/11 05:24:18;;;;;;;36.15;17.05;;;9.30;99.90;;;;;;5071727;28;20051;-71
2024/03/11 05:26:44;;;;;;;33.78;16.42;;;9.40;99.90;;;;;;5078471;28;20036;-70
2024/03/11 05:29:12;;;;;;;32.15;15.55;;;9.30;99.90;;;;;;5070563;28;20043;-71
2024/03/11 05:31:38;;;;;;;40.38;17.88;;;9.30;99.90;;;;;;5067037;28;20126;-71
2024/03/11 05:34:04;;;;;;;36.97;17.63;;;9.30;99.90;;;;;;5050751;28;20463;-69
2024/03/11 05:36:29;;;;;;;37.40;16.88;;;9.30;99.90;;;;;;5070146;28;20033;-71
2024/03/11 05:38:55;;;;;;;35.78;17.85;;;9.30;99.90;;;;;;5072602;28;20723;-71
2024/03/11 05:41:20;;;;;;;33.80;16.75;;;9.30;99.90;;;;;;5068718;28;20032;-72
2024/03/11 05:43:46;;;;;;;30.13;16.05;;;9.30;99.90;;;;;;5068919;28;20834;-71
2024/03/11 05:46:12;;;;;;;36.72;16.88;;;9.30;99.90;;;;;;5080376;28;20052;-71
2024/03/11 05:48:39;;;;;;;38.55;17.17;;;9.30;99.90;;;;;;5070453;28;20078;-71
2024/03/11 05:51:05;;;;;;;34.47;16.77;;;9.30;99.90;;;;;;5067057;28;20033;-71
2024/03/11 05:53:37;;;;;;;32.50;16.38;;;9.30;99.90;;;;;;5075504;28;20035;-72
2024/03/11 05:56:03;;;;;;;33.10;16.38;;;9.20;99.90;;;;;;5080160;28;20143;-70
2024/03/11 05:58:29;;;;;;;35.00;15.48;;;9.20;99.90;;;;;;5077296;28;20028;-73
2024/03/11 06:00:56;;;;;;;36.83;17.52;;;9.20;99.90;;;;;;5066909;28;20051;-71
2024/03/11 06:03:22;;;;;;;35.70;15.93;;;9.20;99.90;;;;;;5065331;28;20110;-71
2024/03/11 06:05:48;;;;;;;36.42;17.33;;;9.20;99.90;;;;;;5063964;28;20080;-71
2024/03/11 06:08:17;;;;;;;37.72;17.17;;;9.20;99.90;;;;;;5066801;28;20032;-72
2024/03/11 06:10:43;;;;;;;32.13;15.95;;;9.20;99.90;;;;;;5063564;28;20080;-69
2024/03/11 06:13:09;;;;;;;33.45;16.48;;;9.20;99.90;;;;;;5076313;28;20043;-71
2024/03/11 06:15:35;;;;;;;35.08;16.70;;;9.20;99.90;;;;;;5082858;28;20111;-72
2024/03/11 06:18:01;;;;;;;35.90;16.48;;;9.20;99.90;;;;;;5052813;28;20565;-71
2024/03/11 06:20:27;;;;;;;38.20;15.82;;;9.20;99.90;;;;;;5077264;28;20044;-71
2024/03/11 06:22:52;;;;;;;33.42;17.58;;;9.30;99.90;;;;;;5072989;28;20417;-71
2024/03/11 06:25:21;;;;;;;31.10;15.82;;;9.20;99.90;;;;;;5056303;28;20032;-71
2024/03/11 06:27:50;;;;;;;34.90;16.65;;;9.30;99.90;;;;;;5071103;28;20036;-71
2024/03/11 06:30:18;;;;;;;33.70;16.23;;;9.30;99.90;;;;;;5059086;28;20036;-71
2024/03/11 06:32:48;;;;;;;32.72;16.30;;;9.30;99.90;;;;;;5067290;28;20056;-71
2024/03/11 06:35:15;;;;;;;40.28;16.35;;;9.30;99.90;;;;;;5076404;28;20097;-71
2024/03/11 06:37:43;;;;;;;33.08;15.73;;;9.30;99.90;;;;;;5072179;28;20827;-71
2024/03/11 06:40:09;;;;;;;35.53;16.98;;;9.30;99.90;;;;;;5076100;28;20037;-71
2024/03/11 06:42:37;;;;;;;35.38;16.52;;;9.40;99.90;;;;;;5068401;28;20679;-71
2024/03/11 06:45:03;;;;;;;40.30;16.93;;;9.40;99.90;;;;;;5070943;28;20037;-68
2024/03/11 06:47:29;;;;;;;34.30;16.50;;;9.40;99.90;;;;;;5078885;28;20644;-67
2024/03/11 06:49:54;;;;;;;40.83;17.38;;;9.40;99.90;;;;;;5075871;28;20035;-68
2024/03/11 06:52:20;;;;;;;32.38;15.90;;;9.40;99.90;;;;;;5074790;28;20040;-68
2024/03/11 06:54:45;;;;;;;38.03;17.23;;;9.40;99.90;;;;;;5080593;28;20479;-68
2024/03/11 06:57:11;;;;;;;31.67;16.33;;;9.40;99.90;;;;;;5073812;28;20028;-68
2024/03/11 06:59:37;;;;;;;33.72;16.27;;;9.40;99.90;;;;;;5077954;28;20395;-69
2024/03/11 07:02:03;;;;;;;33.17;15.77;;;9.40;99.90;;;;;;5068212;28;20151;-69
2024/03/11 07:04:31;;;;;;;32.88;16.00;;;9.40;99.90;;;;;;5079134;28;20771;-68
2024/03/11 07:06:58;;;;;;;33.03;15.38;;;9.40;99.90;;;;;;5081906;28;20120;-69
2024/03/11 07:09:25;;;;;;;41.47;15.95;;;9.40;99.90;;;;;;5081486;28;20511;-68
2024/03/11 07:11:51;;;;;;;34.33;16.30;;;9.50;99.90;;;;;;5080319;28;20043;-67
2024/03/11 07:14:16;;;;;;;31.05;15.77;;;9.40;99.90;;;;;;5064540;28;20033;-68
2024/03/11 07:16:43;;;;;;;38.58;16.58;;;9.50;99.90;;;;;;5080002;28;20717;-68
2024/03/11 07:19:09;;;;;;;36.90;16.48;;;9.40;99.90;;;;;;5080295;28;20553;-68
2024/03/11 07:21:35;;;;;;;32.92;15.68;;;9.40;99.90;;;;;;5075558;28;20035;-68
2024/03/11 07:24:01;;;;;;;32.67;17.00;;;9.50;99.90;;;;;;5080407;28;20115;-68
2024/03/11 07:26:27;;;;;;;36.13;16.13;;;9.50;99.90;;;;;;5079898;28;20131;-68
2024/03/11 07:28:53;;;;;;;31.00;16.42;;;9.50;99.90;;;;;;5077471;28;20550;-68
2024/03/11 07:31:18;;;;;;;39.10;16.23;;;9.50;99.90;;;;;;5081478;28;20055;-68
2024/03/11 07:33:50;;;;;;;36.63;15.85;;;9.50;99.90;;;;;;5068933;28;20444;-68
2024/03/11 07:36:16;;;;;;;35.63;16.73;;;9.50;99.90;;;;;;5078355;28;20063;-68
2024/03/11 07:38:46;;;;;;;34.83;16.85;;;9.50;99.90;;;;;;5083552;28;20607;-68
2024/03/11 07:41:12;;;;;;;36.20;16.33;;;9.50;99.90;;;;;;5083804;28;20024;-68
2024/03/11 07:43:38;;;;;;;43.83;17.08;;;9.60;99.90;;;;;;5083352;28;20024;-68
2024/03/11 07:46:04;;;;;;;50.17;19.73;;;9.60;99.90;;;;;;5079836;28;20035;-67
2024/03/11 07:48:30;;;;;;;48.55;18.63;;;9.60;99.90;;;;;;5081031;28;20050;-68
2024/03/11 07:50:56;;;;;;;58.08;19.05;;;9.70;99.90;;;;;;5078340;28;20093;-68
2024/03/11 07:53:21;;;;;;;43.35;18.17;;;9.60;99.90;;;;;;5081926;28;20043;-68
2024/03/11 07:55:50;;;;;;;39.90;18.70;;;9.60;99.90;;;;;;5083561;28;20039;-68
2024/03/11 07:58:15;;;;;;;38.95;17.52;;;9.60;99.90;;;;;;5078967;28;20035;-69
2024/03/11 08:00:42;;;;;;;41.58;18.67;;;9.60;99.90;;;;;;5066210;28;20035;-68
2024/03/11 08:03:09;;;;;;;35.45;17.35;;;9.60;99.90;;;;;;5077134;28;20028;-68
2024/03/11 08:05:36;;;;;;;36.83;18.20;;;9.70;99.90;;;;;;5081828;28;20040;-68
2024/03/11 08:08:04;;;;;;;34.80;17.83;;;9.70;99.90;;;;;;5079696;28;20492;-68
2024/03/11 08:10:30;;;;;;;;;;;9.80;99.90;;;;;;5086155;28;20146;-68
2024/03/11 08:12:56;;;;;;;46.38;17.92;;;9.80;99.90;;;;;;5060604;28;20038;-68
2024/03/11 08:15:22;;;;;;;43.72;19.13;;;9.80;99.90;;;;;;5079362;28;20036;-68
2024/03/11 08:17:49;;;;;;;38.45;18.13;;;9.90;99.90;;;;;;5076144;28;20079;-68
2024/03/11 08:20:17;;;;;;;36.13;18.98;;;9.90;99.90;;;;;;5079557;28;20776;-68
2024/03/11 08:22:47;;;;;;;45.45;19.23;;;9.90;99.90;;;;;;5081297;28;20600;-68
2024/03/11 08:25:23;;;;;;;35.28;17.33;;;10.00;99.90;;;;;;5060649;28;20086;-69
2024/03/11 08:27:52;;;;;;;38.53;17.83;;;10.00;99.90;;;;;;5079368;28;20102;-68
2024/03/11 08:30:19;;;;;;;44.53;20.10;;;10.10;99.90;;;;;;5076198;28;20033;-68
2024/03/11 08:32:50;;;;;;;40.75;18.85;;;10.10;99.90;;;;;;5079417;28;20039;-68
2024/03/11 08:35:22;;;;;;;33.83;17.67;;;10.10;99.90;;;;;;5075289;28;20515;-68
2024/03/11 08:37:49;;;;;;;43.75;20.67;;;10.10;99.90;;;;;;5074236;28;20456;-68
2024/03/11 08:40:16;;;;;;;45.65;21.10;;;10.10;99.90;;;;;;5081051;28;20519;-68
2024/03/11 08:42:44;;;;;;;41.97;20.05;;;10.20;99.90;;;;;;5083434;28;20024;-68
2024/03/11 08:45:11;;;;;;;39.83;19.27;;;10.30;99.90;;;;;;5084719;28;20029;-69
2024/03/11 08:47:39;;;;;;;38.75;19.08;;;10.30;99.90;;;;;;5086816;28;20122;-68
2024/03/11 08:50:08;;;;;;;41.17;19.88;;;10.30;99.90;;;;;;5087211;28;20776;-68
2024/03/11 08:52:35;;;;;;;43.50;19.58;;;10.30;99.90;;;;;;5063820;28;20044;-68
2024/03/11 08:55:05;;;;;;;37.23;19.77;;;10.30;99.90;;;;;;5061025;28;20039;-68
2024/03/11 08:57:32;;;;;;;40.90;20.85;;;10.30;99.90;;;;;;5075515;28;20028;-69
2024/03/11 08:59:57;;;;;;;41.20;21.23;;;10.40;99.90;;;;;;5066455;28;20586;-68
2024/03/11 09:02:23;;;;;;;40.08;20.10;;;10.30;99.90;;;;;;5075261;28;20040;-68
2024/03/11 09:04:49;;;;;;;39.58;20.08;;;10.30;99.90;;;;;;5078560;28;20040;-68
2024/03/11 09:07:15;;;;;;;43.83;21.10;;;10.40;99.90;;;;;;5072565;28;20150;-68
2024/03/11 09:09:41;;;;;;;38.22;20.58;;;10.40;99.90;;;;;;5078638;28;20485;-69
2024/03/11 09:12:09;;;;;;;43.00;21.75;;;10.50;99.90;;;;;;5061704;28;20021;-68
2024/03/11 09:14:35;;;;;;;;;;;10.60;99.90;;;;;;5079674;28;20028;-68
2024/03/11 09:17:00;;;;;;;42.70;22.70;;;10.70;99.90;;;;;;5085501;28;19912;-67
2024/03/11 09:19:28;;;;;;;44.00;22.58;;;10.70;99.90;;;;;;5080249;28;20027;-68
2024/03/11 09:21:55;;;;;;;39.05;21.70;;;11.00;99.90;;;;;;5075676;28;20052;-68
2024/03/11 09:24:22;;;;;;;41.42;22.35;;;10.90;99.90;;;;;;5060834;28;20023;-68
2024/03/11 09:26:49;;;;;;;40.45;21.27;;;11.00;99.90;;;;;;5075431;28;20256;-67
2024/03/11 09:29:16;;;;;;;38.50;21.52;;;11.10;99.90;;;;;;5076826;28;20024;-69
2024/03/11 09:31:42;;;;;;;41.70;22.85;;;11.20;99.90;;;;;;5056561;28;20161;-68
2024/03/11 09:34:08;;;;;;;44.85;22.52;;;11.40;99.90;;;;;;5076756;28;20447;-69
2024/03/11 09:36:38;;;;;;;44.65;23.30;;;11.50;99.90;;;;;;5063815;28;20043;-69
2024/03/11 09:39:11;;;;;;;39.20;21.25;;;11.60;99.90;;;;;;5075069;28;20029;-69
2024/03/11 09:41:50;;;;;;;34.42;19.48;;;11.70;99.90;;;;;;5080621;28;20036;-68
2024/03/11 09:44:20;;;;;;;34.75;20.20;;;11.80;99.90;;;;;;5056503;28;20673;-69
2024/03/11 09:46:49;;;;;;;37.53;19.13;;;11.90;99.90;;;;;;5079854;28;20158;-68
2024/03/11 09:49:15;;;;;;;33.72;19.15;;;12.00;99.90;;;;;;5080432;28;20024;-68
2024/03/11 09:51:45;;;;;;;34.00;18.88;;;12.00;99.90;;;;;;5074515;28;20384;-69
2024/03/11 09:54:16;;;;;;;32.88;17.80;;;12.10;99.90;;;;;;5081358;28;20024;-69
2024/03/11 09:56:45;;;;;;;33.58;18.02;;;12.00;99.90;;;;;;5075017;28;20036;-68
2024/03/11 09:59:18;;;;;;;30.20;17.67;;;12.00;99.90;;;;;;5076122;28;20568;-69
2024/03/11 10:01:49;;;;;;;30.77;16.55;;;12.00;99.90;;;;;;5082462;28;20797;-69
2024/03/11 10:04:20;;;;;;;29.08;17.45;;;12.00;99.90;;;;;;5056465;28;20135;-69
2024/03/11 10:07:07;;;;;;;32.83;17.95;;;12.00;99.90;;;;;;5072097;28;20036;-68
2024/03/11 10:09:44;;;;;;;25.58;15.48;;;12.00;99.90;;;;;;5078387;28;20026;-69
2024/03/11 10:12:11;;;;;;;30.88;16.48;;;12.10;99.90;;;;;;5079474;28;20492;-68
2024/03/11 10:14:38;;;;;;;28.30;16.52;;;12.10;99.90;;;;;;5085862;28;20591;-69
2024/03/11 10:17:19;;;;;;;27.88;16.80;;;12.30;99.90;;;;;;5070878;28;20031;-68
2024/03/11 10:19:56;;;;;;;25.70;14.68;;;12.40;99.90;;;;;;5088194;28;20664;-68
2024/03/11 10:22:22;;;;;;;29.73;15.88;;;12.30;99.90;;;;;;5072067;28;20032;-68
2024/03/11 10:24:52;;;;;;;25.48;15.27;;;12.30;99.90;;;;;;5082136;28;20114;-69
2024/03/11 10:27:21;;;;;;;26.65;14.90;;;12.30;99.90;;;;;;5077029;28;20028;-68
2024/03/11 10:29:49;;;;;;;22.42;13.98;;;12.30;99.90;;;;;;5073935;28;20032;-68
2024/03/11 10:32:38;;;;;;;26.02;15.27;;;12.30;99.90;;;;;;5059219;28;20047;-69
2024/03/11 10:35:10;;;;;;;20.58;13.18;;;12.20;99.90;;;;;;5077959;28;20123;-68
2024/03/11 10:37:43;;;;;;;23.05;14.05;;;12.20;99.90;;;;;;5086959;28;20036;-69
2024/03/11 10:40:17;;;;;;;24.25;13.57;;;12.20;99.90;;;;;;5080689;28;20116;-68
2024/03/11 10:42:52;;;;;;;20.73;12.88;;;12.10;99.90;;;;;;5074965;28;20543;-68
2024/03/11 10:45:35;;;;;;;21.95;13.10;;;12.10;99.90;;;;;;5081010;28;20435;-69
2024/03/11 10:48:02;;;;;;;20.90;12.95;;;12.10;99.90;;;;;;5082673;28;20058;-69
2024/03/11 10:50:29;;;;;;;22.67;13.17;;;12.30;99.90;;;;;;5077330;28;20086;-69
2024/03/11 10:52:59;;;;;;;20.92;12.18;;;12.40;99.90;;;;;;5077694;28;20277;-68
2024/03/11 10:55:34;;;;;;;15.85;9.65;;;12.60;99.90;;;;;;5084859;28;20028;-68
2024/03/11 10:58:04;;;;;;;17.20;9.73;;;12.70;99.90;;;;;;5081766;28;20042;-68
2024/03/11 11:00:34;;;;;;;13.68;8.98;;;12.70;99.90;;;;;;5065150;28;20028;-68
2024/03/11 11:03:07;;;;;;;14.00;7.97;;;12.70;99.90;;;;;;5079808;28;20146;-68
2024/03/11 11:05:52;;;;;;;12.02;6.82;;;12.70;99.90;;;;;;5080596;28;20043;-68
2024/03/11 11:08:22;;;;;;;9.30;6.22;;;12.60;99.90;;;;;;5084192;28;20455;-67
2024/03/11 11:10:49;;;;;;;10.57;6.60;;;12.60;99.90;;;;;;5087763;28;20032;-67
2024/03/11 11:13:18;;;;;;;9.48;6.07;;;12.60;99.90;;;;;;5077604;28;20032;-68
2024/03/11 11:15:48;;;;;;;9.43;6.10;;;12.70;99.90;;;;;;5078772;28;20028;-68
2024/03/11 11:18:16;;;;;;;8.52;5.13;;;12.70;99.90;;;;;;5084133;28;20447;-68
2024/03/11 11:20:47;;;;;;;8.10;5.35;;;12.60;99.90;;;;;;5084899;28;20028;-68
2024/03/11 11:23:27;;;;;;;8.65;5.60;;;12.50;99.90;;;;;;5077323;28;20035;-68
2024/03/11 11:25:57;;;;;;;6.47;4.00;;;12.60;99.90;;;;;;5075659;28;20060;-69
2024/03/11 11:28:28;;;;;;;5.57;3.20;;;12.50;99.90;;;;;;5077892;28;20097;-68
2024/03/11 11:31:32;;;;;;;3.00;2.22;;;12.50;99.90;;;;;;5079230;28;20081;-68
2024/03/11 11:34:04;;;;;;;1.20;0.90;;;12.40;99.20;;;;;;5079315;28;20032;-68
2024/03/11 11:36:30;;;;;;;1.10;0.80;;;12.40;98.80;;;;;;5080231;28;20033;-69
2024/03/11 11:38:58;;;;;;;1.05;0.80;;;12.40;98.50;;;;;;5078672;28;20035;-69
2024/03/11 11:41:49;;;;;;;1.55;0.70;;;12.40;98.70;;;;;;5079318;28;20169;-68
2024/03/11 11:44:27;;;;;;;1.15;0.65;;;12.30;98.30;;;;;;5083642;28;20551;-69
2024/03/11 11:46:54;;;;;;;0.60;0.60;;;12.30;98.20;;;;;;5081339;28;20036;-68
2024/03/11 11:49:24;;;;;;;2.35;0.80;;;12.30;98.00;;;;;;5078061;28;20123;-68
2024/03/11 11:51:54;;;;;;;0.77;0.70;;;12.30;98.30;;;;;;5062552;28;20052;-68
2024/03/11 11:54:22;;;;;;;0.82;0.63;;;12.30;98.10;;;;;;5080960;28;20130;-67
2024/03/11 11:56:48;;;;;;;1.08;0.77;;;12.30;98.20;;;;;;5065418;28;20148;-67
2024/03/11 11:59:20;;;;;;;2.53;0.77;;;12.30;98.50;;;;;;5086175;28;20405;-68
2024/03/11 12:01:51;;;;;;;1.35;0.70;;;12.30;98.50;;;;;;5075045;28;20056;-67
2024/03/11 12:04:18;;;;;;;0.57;0.57;;;12.30;98.60;;;;;;5091839;28;20480;-67
2024/03/11 12:06:48;;;;;;;0.82;0.68;;;12.30;98.60;;;;;;5075583;28;20497;-68
2024/03/11 12:09:15;;;;;;;0.43;0.43;;;12.30;98.50;;;;;;5074303;28;20040;-67
2024/03/11 12:11:45;;;;;;;3.55;1.55;;;12.40;98.60;;;;;;5080007;28;20028;-68
2024/03/11 12:14:11;;;;;;;1.60;0.68;;;12.40;98.30;;;;;;5077671;28;20048;-67
2024/03/11 12:16:39;;;;;;;7.05;0.80;;;12.30;98.30;;;;;;5079502;28;20112;-68
2024/03/11 12:19:06;;;;;;;2.42;1.00;;;12.20;98.10;;;;;;5085721;28;20029;-67
2024/03/11 12:21:33;;;;;;;1.15;0.50;;;12.20;98.30;;;;;;5064528;28;20493;-68
2024/03/11 12:24:09;;;;;;;0.63;0.50;;;12.20;98.30;;;;;;5087496;28;20032;-67
2024/03/11 12:26:38;;;;;;;0.73;0.45;;;12.10;98.20;;;;;;5076045;28;20036;-67
2024/03/11 12:29:14;;;;;;;2.05;0.57;;;12.10;98.40;;;;;;5074058;28;20101;-67
2024/03/11 12:31:41;;;;;;;1.15;0.70;;;12.00;98.40;;;;;;5062630;28;20522;-67
2024/03/11 12:34:09;;;;;;;2.80;0.40;;;12.00;98.70;;;;;;5076875;28;20108;-67
2024/03/11 12:36:39;;;;;;;0.65;0.30;;;12.00;98.60;;;;;;5070528;28;20139;-66
2024/03/11 12:39:26;;;;;;;0.47;0.47;;;12.10;98.80;;;;;;5072818;28;20109;-67
2024/03/11 12:41:56;;;;;;;0.67;0.53;;;12.00;98.90;;;;;;5065342;28;20049;-67